Decoded Metar for PAPN (PILOT POINT in AK, USA) (IATA:PNP) | Meteo·Mobile Aviation Weather
aviador You're here:

PAPN Decoded Metar

PILOT POINT in AK, USA
Report Time2018-09-22 10:56:00
UTC Time2018-09-22 11:10:10
Flight Rules mvfr MVFR
Wind260° at 19 Gusting to 27 kt
W.Decomp.*RWY 25: 18.9 kt HW 2.3 kt LCW
W.Rank260° ranks 3
Current wind is above 260° avg. (11.8)
Visibility9999 m
Phenomena:Light Rain
Clouds:Few 006 Hf
Overcast 023 Hf
Expected CloudBase > 400 ft AGL from Temp-Dew spread
Ceiling2,300 ft
Temp10°C (ISA -5)
Dew Point09°C (94% RH)
AAT3.0°C
QNH1007 hPa
Density Alt-167 ft
Elevation59 ft
Report Wrong Elevation
Raw Report
PAPN 221056Z AUTO 26019G27KT 10SM -RA FEW006 OVC023 10/09 A2975
RMK AO2 PK WND 26027/1051 RAE11B44 SLPNO P0000 T01000089=

Extra information for PAPN:More info

Metar Taf Metar & Taf Last 4 Metars F.Rules Stats Wind Profile Meteogram Temp Stats Airport Information Weather charts Add Link Nearby VenuesMetar ALERT Operation Metar Decoded Social comments

AIRNAV info for PAPN